Airfield :
LOGIN :

Register | Disclaimer

   EN    FR    IT 

 










Legend :    VFR   Marginal VFR   IFR   Intensive IFR   Very Intensive IFR
Visi :
Ceiling :
>= 8 km
>= 3000ft
5 to 8 km
1000 to 3000 ft
1500m to 5 km
500 to 1000 ft
800 to 1500m
200 to 500 ft
< 800m
< 200 ft
Symbols :   Thunderstorms  Fog  Heavy snow  Heavy precipitations  Wind > 20 kt
SIGMETs :     Misc.  Thunderstorms  Icing  Turbulence  Mountain Waves  Volcanic Ashes






- Airport Elevation : 510 ft


LJCE - Cerklje

CURRENT METAR :
  • 151230Z 24004KT 9999 SCT030 25/18 Q1013 RMK BLU

EXPIRED METARs :
  • 151200Z 17004KT 150V210 9999 SCT030 26/18 Q1013 RMK BLU
  • 151130Z VRB02KT 9999 SCT027 26/18 Q1013 RMK BLU
  • 151100Z VRB03KT 9999 SCT027 26/19 Q1014 RMK BLU
  • 151030Z 14003KT 080V190 9999 SCT027 25/18 Q1014 RMK BLU
  • 151000Z VRB02KT 9999 SCT025 24/18 Q1014 RMK BLU

TAF TAF LJCE
Valid from the 15 at 12:00 until the 15 at 21:00 UTC


151100Z 1512/1521 07003KT 9999 FEW040
PROB40
TEMPO 1512/1515 SHRA SCT040TCU
PROB40
TEMPO 1515/1518 FEW040CB
PROB30
TEMPO 1515/1518 VRB15KT 5000 SCT030CB BKN050



MET'MAP, your aeronautical weather chart ! - Copyright ORBIFLY December 2007 - Disclaimer

ORBIFLY MET'MAP TEAM :

Programming & Development : Alexandra Zaïnal
Concept & original design : Baudouin d'Aumeries
Assistance for programming : Marc-Olivier Méhu
Technical & hardware support : Manuel Goepfert

Contact : metmap@orbifly.com




SOURCES & CREDITS :

   NOAA